Nearby METAR Reports

 

LJLJ - Ljubljana/Brnik, Slovenia
Distance from station: W 41km
Updated: 25/06/2019 15:30
Few Clouds
Few Clouds
 Wind from ESE
Wind: ESE 11 km/h
Temperature: 29°C
Heat Index: 29°C
Dew Point: 18°C
Humidity: 51%
Barometer: 1024 hPa
Clouds: Few Clouds
Visibility: 10 km
Cloud details: Few Clouds 1372 m
2019/06/25 13:30 LJLJ 251330Z 12006KT 090V160 9999 FEW045 29/18 Q1024 NOSIG
LJMB - Maribor, Slovenia
Distance from station: NE 63km
Updated: 25/06/2019 15:30
Partly cloudy
Partly cloudy
 Wind from ENE
Wind: ENE 7 km/h
Temperature: 29°C
Heat Index: 30°C
Dew Point: 19°C
Humidity: 55%
Barometer: 1024 hPa
Clouds: Partly cloudy
Visibility: 10 km
Cloud details: Partly cloudy 1280 m
2019/06/25 13:30 LJMB 251330Z 06004KT 340V110 9999 SCT042 29/19 Q1024
 
LJPZ - Portoroz, Slovenia
Distance from station: SW 130km
Updated: 25/06/2019 15:30
Few Clouds
Few Clouds
 Wind from N
Wind: N 13 km/h
Temperature: 34°C
Heat Index: 36°C
Dew Point: 19°C
Humidity: 41%
Barometer: 1020 hPa
Clouds: Few Clouds
Visibility: 10 km
Cloud details: Few Clouds 1524 m
2019/06/25 13:30 LJPZ 251330Z 35007KT 280V030 9999 FEW050 34/19 Q1020
LJCE - Cerklje, Slovenia
Distance from station: ESE 49km
Updated: 25/06/2019 15:30
Few Clouds
Few Clouds
 Wind from varies
Wind: varies 6 km/h
Temperature: 29°C
Heat Index: 31°C
Dew Point: 20°C
Humidity: 58%
Barometer: 1023 hPa
Clouds: Few Clouds
Visibility: 10 km
Cloud details: Few Clouds 1250 m
2019/06/25 13:30 LJCE 251330Z AUTO VRB03KT 9999 FEW041/// 29/20 Q1023
 
LDZA - Zagreb/Pleso, Croatia
Distance from station: ESE 96km
Updated: 25/06/2019 15:30
Few Clouds
Few Clouds
 Wind from ENE
Wind: ENE 9 km/h
Temperature: 30°C
Heat Index: 32°C
Dew Point: 20°C
Humidity: 55%
Barometer: 1023 hPa
Clouds: Few Clouds
Visibility: 10 km
Cloud details: Few Clouds 1372 m
2019/06/25 13:30 LDZA 251330Z 07005KT 360V150 9999 FEW045 30/20 Q1023 TEMPO 06008KT
LDRI - Rijeka/Omisalj, Croatia
Distance from station: SSW 109km
Updated: 25/06/2019 15:30
Clear
Clear
 Wind from WSW
Wind: WSW 11 km/h
Temperature: 31°C
Heat Index: 32°C
Dew Point: 18°C
Humidity: 46%
Barometer: 1021 hPa
Summary: Clear
Visibility: greater than 10 km
2019/06/25 13:30 LDRI 251330Z 25006KT 200V310 CAVOK 31/18 Q1021
 
LDPL - Pula, Croatia
Distance from station: SSW 164km
Updated: 25/06/2019 15:30
Clear
Clear
 Wind from W
Wind: W 15 km/h
Temperature: 30°C
Heat Index: 31°C
Dew Point: 19°C
Humidity: 52%
Barometer: 1021 hPa
Summary: Clear
Visibility: greater than 10 km
2019/06/25 13:30 LDPL 251330Z 28008KT CAVOK 30/19 Q1021 NOSIG
LOWK - Klagenfurt(Civ/M, Austria
Distance from station: NW 76km
Updated: 25/06/2019 15:20
Few Clouds
Few Clouds
 Wind from ESE
Wind: ESE 9 km/h
Temperature: 30°C
Heat Index: 31°C
Dew Point: 17°C
Humidity: 46%
Barometer: 1024 hPa
Clouds: Few Clouds
Visibility: 10 km
Cloud details: Few Clouds 1829 m
2019/06/25 13:20 LOWK 251320Z 11005KT 020V160 9999 FEW060 30/17 Q1024 NOSIG
 
LOWG - Graz (mil/Civ), Austria
Distance from station: NNE 100km
Updated: 25/06/2019 15:20
Few Clouds
Few Clouds
 Wind from ESE
Wind: ESE 9 km/h
Temperature: 29°C
Heat Index: 29°C
Dew Point: 18°C
Humidity: 51%
Barometer: 1024 hPa
Clouds: Few Clouds
Visibility: 10 km
Cloud details: Few Clouds 1372 m
2019/06/25 13:20 LOWG 251320Z 12005KT 050V150 9999 FEW045 29/18 Q1024 NOSIG
LOAN - Wr.neustadt East, Austria
Distance from station: NNE 212km
Updated: 25/06/2019 15:00
Partly cloudy
Partly cloudy
 Wind from SE
Wind: SE 22 km/h
Clouds: Partly cloudy
Cloud details: Partly cloudy 1219 m
2019/06/25 13:00 LOAN 251300Z 13012KT 30KM SCT040CU
 
LIPQ - Ronchi Legionari, Italy
Distance from station: SW 35km
Updated: 25/06/2019 15:20
Clear
Clear
 Wind from varies
Wind: varies 7 km/h
Temperature: 33°C
Dew Point: 17°C
Humidity: 38%
Barometer: 1020 hPa
Summary: Clear
Visibility: greater than 10 km
2019/06/25 13:20 LIPQ 251320Z VRB04KT CAVOK 33/17 Q1020
LIVT - Trieste, Italy
Distance from station: WSW 109km
Updated: 25/06/2019 14:55
Few Clouds
Few Clouds
 Wind from NNE
Wind: NNE 9 km/h
Temperature: 34°C
Heat Index: 36°C
Dew Point: 19°C
Humidity: 41%
Barometer: 1020 hPa
Clouds: Few Clouds
Visibility: 10 km
Cloud details: Few Clouds 914 m
2019/06/25 12:55 LIVT 251255Z 02005KT 9999 FEW030 34/19 Q1020 RMK FEW QUK 2 QUL 1 NE VIS MAR 20 KM VIS MIN 9999
 
LIVO - Tarvisio, Italy
Distance from station: NNW 49km
Updated: 25/06/2019 14:55
Few Clouds
Few Clouds
 Wind from NE
Wind: NE 7 km/h
Temperature: 28°C
Heat Index: 29°C
Dew Point: 18°C
Humidity: 55%
Barometer: 1024 hPa
Clouds: Few Clouds
Visibility: 10 km
Cloud details: Few Clouds 914 m
2019/06/25 12:55 LIVO 251255Z 04004KT 9999 FEW030 28/18 Q1024
LIPZ - Venezia/Tessera, Italy
Distance from station: WSW 217km
Updated: 25/06/2019 15:20
Few Clouds
Few Clouds
 Wind from SSE
Wind: SSE 9 km/h
Temperature: 31°C
Heat Index: 33°C
Dew Point: 19°C
Humidity: 49%
Barometer: 1021 hPa
Clouds: Few Clouds
Visibility: 10 km
Cloud details: Few Clouds 1372 m
2019/06/25 13:20 LIPZ 251320Z 15005KT 120V180 9999 FEW045 31/19 Q1021 NOSIG
 
LHSM - Balaton, Hungary
Distance from station: ENE 177km
Updated: 25/06/2019 15:15
Clear
Clear
 Wind from SE
Wind: SE 7 km/h
Temperature: 30°C
Heat Index: 31°C
Dew Point: 19°C
Humidity: 52%
Barometer: 1023 hPa
Clouds: Clear
Visibility: 9 km
2019/06/25 13:15 LHSM 251315Z AUTO 13004KT 040V200 9000 NCD 30/19 Q1023 NOSIG